Redwood Valley, California
Current Conditions -  °F | °C
As of 7:56 AM on Friday 21 Nov 2014 (Local Time) from KUKI Reporting Station
Overcast Overcast  
Wind Chill: 47°   Ceiling: 600
Heat Index: 49°   Visibility: 10mi
Dew Point: 46°   Wind: 5mph
Humidity: 90%   Direction: 340°NNW
Pressure: 30.11"   Gusts: NA
Location:  39.27°N, 123.21°W
Report Text: KUKI 211556Z AUTO 34004KT 10SM BKN006 OVC011 09/08 A3011 RMK AO2 SLP193 T00940078
Loading
Personal Weather Stations






























Interactive Weather Map New forecast layout! Learn more

10-Day Weather Forecast

Advertisements
Track Severe Weather on mobile